sensor_id;sensor_type;location;lat;lon;timestamp;P1;durP1;ratioP1;P2;durP2;ratioP2
69083;SDS011;56185;48.526;9.044;2023-08-06T00:00:35;5.10;;;3.40;;
69083;SDS011;56185;48.526;9.044;2023-08-06T00:03:00;5.60;;;3.80;;
69083;SDS011;56185;48.526;9.044;2023-08-06T00:05:25;4.50;;;3.23;;
69083;SDS011;56185;48.526;9.044;2023-08-06T00:07:50;6.23;;;3.50;;
69083;SDS011;56185;48.526;9.044;2023-08-06T00:10:16;5.20;;;3.37;;
69083;SDS011;56185;48.526;9.044;2023-08-06T00:12:42;4.82;;;3.17;;
69083;SDS011;56185;48.526;9.044;2023-08-06T00:15:08;4.35;;;3.25;;
69083;SDS011;56185;48.526;9.044;2023-08-06T00:17:34;4.68;;;3.25;;
69083;SDS011;56185;48.526;9.044;2023-08-06T00:19:59;9.68;;;3.30;;
69083;SDS011;56185;48.526;9.044;2023-08-06T00:22:25;4.68;;;3.20;;
69083;SDS011;56185;48.526;9.044;2023-08-06T00:24:50;4.53;;;3.23;;
69083;SDS011;56185;48.526;9.044;2023-08-06T00:27:16;6.25;;;3.40;;
69083;SDS011;56185;48.526;9.044;2023-08-06T00:29:41;3.80;;;3.23;;
69083;SDS011;56185;48.526;9.044;2023-08-06T00:32:06;5.17;;;3.63;;
69083;SDS011;56185;48.526;9.044;2023-08-06T00:34:31;4.03;;;3.37;;
69083;SDS011;56185;48.526;9.044;2023-08-06T00:36:57;3.50;;;3.07;;
69083;SDS011;56185;48.526;9.044;2023-08-06T00:39:22;6.23;;;2.87;;
69083;SDS011;56185;48.526;9.044;2023-08-06T00:41:47;5.73;;;2.80;;
69083;SDS011;56185;48.526;9.044;2023-08-06T00:44:12;3.77;;;2.93;;
69083;SDS011;56185;48.526;9.044;2023-08-06T00:46:38;5.97;;;2.57;;
69083;SDS011;56185;48.526;9.044;2023-08-06T00:49:03;3.70;;;2.80;;
69083;SDS011;56185;48.526;9.044;2023-08-06T00:51:29;6.00;;;2.90;;
69083;SDS011;56185;48.526;9.044;2023-08-06T00:53:55;3.95;;;2.80;;
69083;SDS011;56185;48.526;9.044;2023-08-06T00:56:20;4.63;;;3.10;;
69083;SDS011;56185;48.526;9.044;2023-08-06T00:58:46;3.80;;;2.50;;
69083;SDS011;56185;48.526;9.044;2023-08-06T01:01:11;3.95;;;2.28;;
69083;SDS011;56185;48.526;9.044;2023-08-06T01:03:37;6.00;;;2.40;;
69083;SDS011;56185;48.526;9.044;2023-08-06T01:06:02;4.68;;;2.20;;
69083;SDS011;56185;48.526;9.044;2023-08-06T01:13:59;4.60;;;2.30;;
69083;SDS011;56185;48.526;9.044;2023-08-06T01:16:29;2.90;;;2.05;;
69083;SDS011;56185;48.526;9.044;2023-08-06T01:18:55;4.60;;;2.00;;
69083;SDS011;56185;48.526;9.044;2023-08-06T01:21:23;5.22;;;2.22;;
69083;SDS011;56185;48.526;9.044;2023-08-06T01:23:48;4.33;;;2.20;;
69083;SDS011;56185;48.526;9.044;2023-08-06T01:29:33;3.00;;;2.10;;
69083;SDS011;56185;48.526;9.044;2023-08-06T01:32:10;2.80;;;2.10;;
69083;SDS011;56185;48.526;9.044;2023-08-06T01:34:37;3.17;;;2.25;;
69083;SDS011;56185;48.526;9.044;2023-08-06T01:37:08;2.40;;;2.20;;
69083;SDS011;56185;48.526;9.044;2023-08-06T01:39:33;5.05;;;2.17;;
69083;SDS011;56185;48.526;9.044;2023-08-06T01:41:59;3.38;;;2.30;;
69083;SDS011;56185;48.526;9.044;2023-08-06T01:44:24;3.45;;;2.40;;
69083;SDS011;56185;48.526;9.044;2023-08-06T01:46:49;4.20;;;2.37;;
69083;SDS011;56185;48.526;9.044;2023-08-06T01:49:14;3.38;;;2.40;;
69083;SDS011;56185;48.526;9.044;2023-08-06T01:51:40;3.00;;;2.15;;
69083;SDS011;56185;48.526;9.044;2023-08-06T01:54:05;3.23;;;2.20;;
69083;SDS011;56185;48.526;9.044;2023-08-06T01:56:30;3.33;;;2.27;;
69083;SDS011;56185;48.526;9.044;2023-08-06T01:58:55;3.10;;;2.30;;
69083;SDS011;56185;48.526;9.044;2023-08-06T02:01:21;6.53;;;2.55;;
69083;SDS011;56185;48.526;9.044;2023-08-06T02:03:46;4.32;;;2.58;;
69083;SDS011;56185;48.526;9.044;2023-08-06T02:06:11;4.50;;;2.40;;
69083;SDS011;56185;48.526;9.044;2023-08-06T02:08:37;5.25;;;2.25;;
69083;SDS011;56185;48.526;9.044;2023-08-06T02:11:02;3.70;;;2.17;;
69083;SDS011;56185;48.526;9.044;2023-08-06T02:13:27;4.72;;;2.20;;
69083;SDS011;56185;48.526;9.044;2023-08-06T02:15:53;3.28;;;2.10;;
69083;SDS011;56185;48.526;9.044;2023-08-06T02:18:18;5.03;;;2.20;;
69083;SDS011;56185;48.526;9.044;2023-08-06T02:20:43;4.15;;;2.05;;
69083;SDS011;56185;48.526;9.044;2023-08-06T02:23:09;4.70;;;2.40;;
69083;SDS011;56185;48.526;9.044;2023-08-06T02:25:34;4.78;;;2.20;;
69083;SDS011;56185;48.526;9.044;2023-08-06T02:28:00;7.88;;;2.20;;
69083;SDS011;56185;48.526;9.044;2023-08-06T02:30:25;3.75;;;2.00;;
69083;SDS011;56185;48.526;9.044;2023-08-06T02:32:51;6.75;;;2.10;;
69083;SDS011;56185;48.526;9.044;2023-08-06T02:35:16;4.57;;;1.92;;
69083;SDS011;56185;48.526;9.044;2023-08-06T02:37:41;9.97;;;2.20;;
69083;SDS011;56185;48.526;9.044;2023-08-06T02:40:07;2.87;;;2.40;;
69083;SDS011;56185;48.526;9.044;2023-08-06T02:42:32;5.18;;;2.20;;
69083;SDS011;56185;48.526;9.044;2023-08-06T02:44:57;4.17;;;2.17;;
69083;SDS011;56185;48.526;9.044;2023-08-06T02:47:23;4.60;;;2.27;;
69083;SDS011;56185;48.526;9.044;2023-08-06T02:49:48;4.80;;;2.30;;
69083;SDS011;56185;48.526;9.044;2023-08-06T02:52:13;3.27;;;2.17;;
69083;SDS011;56185;48.526;9.044;2023-08-06T02:54:38;3.60;;;2.00;;
69083;SDS011;56185;48.526;9.044;2023-08-06T02:57:04;3.27;;;2.10;;
69083;SDS011;56185;48.526;9.044;2023-08-06T02:59:30;3.58;;;2.22;;
69083;SDS011;56185;48.526;9.044;2023-08-06T03:01:56;5.30;;;2.05;;
69083;SDS011;56185;48.526;9.044;2023-08-06T03:04:21;3.57;;;2.00;;
69083;SDS011;56185;48.526;9.044;2023-08-06T03:06:46;4.73;;;2.03;;
69083;SDS011;56185;48.526;9.044;2023-08-06T03:09:11;4.77;;;2.27;;
69083;SDS011;56185;48.526;9.044;2023-08-06T03:11:45;3.10;;;2.00;;
69083;SDS011;56185;48.526;9.044;2023-08-06T03:14:40;4.57;;;2.20;;
69083;SDS011;56185;48.526;9.044;2023-08-06T03:17:06;5.25;;;2.30;;
69083;SDS011;56185;48.526;9.044;2023-08-06T03:19:31;6.22;;;2.58;;
69083;SDS011;56185;48.526;9.044;2023-08-06T03:21:56;2.93;;;2.00;;
69083;SDS011;56185;48.526;9.044;2023-08-06T03:24:21;6.00;;;2.17;;
69083;SDS011;56185;48.526;9.044;2023-08-06T03:26:47;3.57;;;2.00;;
69083;SDS011;56185;48.526;9.044;2023-08-06T03:29:12;5.63;;;2.23;;
69083;SDS011;56185;48.526;9.044;2023-08-06T03:31:37;3.27;;;1.80;;
69083;SDS011;56185;48.526;9.044;2023-08-06T03:34:02;2.87;;;1.90;;
69083;SDS011;56185;48.526;9.044;2023-08-06T03:36:28;4.27;;;2.10;;
69083;SDS011;56185;48.526;9.044;2023-08-06T03:38:53;3.13;;;2.00;;
69083;SDS011;56185;48.526;9.044;2023-08-06T03:41:18;3.92;;;2.05;;
69083;SDS011;56185;48.526;9.044;2023-08-06T03:43:43;5.37;;;2.27;;
69083;SDS011;56185;48.526;9.044;2023-08-06T03:46:09;5.40;;;2.40;;
69083;SDS011;56185;48.526;9.044;2023-08-06T03:48:34;4.03;;;1.70;;
69083;SDS011;56185;48.526;9.044;2023-08-06T03:50:59;3.60;;;2.00;;
69083;SDS011;56185;48.526;9.044;2023-08-06T03:53:24;5.70;;;2.00;;
69083;SDS011;56185;48.526;9.044;2023-08-06T03:55:49;2.40;;;1.70;;
69083;SDS011;56185;48.526;9.044;2023-08-06T03:58:15;3.30;;;1.80;;
69083;SDS011;56185;48.526;9.044;2023-08-06T04:00:40;2.87;;;1.40;;
69083;SDS011;56185;48.526;9.044;2023-08-06T04:03:05;3.03;;;1.65;;
69083;SDS011;56185;48.526;9.044;2023-08-06T04:05:31;2.55;;;1.30;;
69083;SDS011;56185;48.526;9.044;2023-08-06T04:07:57;2.85;;;1.50;;
69083;SDS011;56185;48.526;9.044;2023-08-06T04:10:22;2.77;;;1.40;;
69083;SDS011;56185;48.526;9.044;2023-08-06T04:12:47;3.05;;;1.50;;
69083;SDS011;56185;48.526;9.044;2023-08-06T04:15:12;2.03;;;1.10;;
69083;SDS011;56185;48.526;9.044;2023-08-06T04:17:38;2.97;;;1.17;;
69083;SDS011;56185;48.526;9.044;2023-08-06T04:20:03;4.00;;;1.30;;
69083;SDS011;56185;48.526;9.044;2023-08-06T04:22:29;3.92;;;1.00;;
69083;SDS011;56185;48.526;9.044;2023-08-06T04:24:54;3.65;;;1.20;;
69083;SDS011;56185;48.526;9.044;2023-08-06T04:27:19;2.47;;;1.17;;
69083;SDS011;56185;48.526;9.044;2023-08-06T04:29:45;1.55;;;0.90;;
69083;SDS011;56185;48.526;9.044;2023-08-06T04:32:10;3.57;;;1.00;;
69083;SDS011;56185;48.526;9.044;2023-08-06T04:34:37;1.73;;;0.90;;
69083;SDS011;56185;48.526;9.044;2023-08-06T04:37:02;3.13;;;1.10;;
69083;SDS011;56185;48.526;9.044;2023-08-06T04:39:28;2.58;;;1.10;;
69083;SDS011;56185;48.526;9.044;2023-08-06T04:41:55;3.78;;;0.90;;
69083;SDS011;56185;48.526;9.044;2023-08-06T04:44:21;2.30;;;0.90;;
69083;SDS011;56185;48.526;9.044;2023-08-06T04:46:46;2.30;;;1.00;;
69083;SDS011;56185;48.526;9.044;2023-08-06T04:49:11;2.73;;;1.07;;
69083;SDS011;56185;48.526;9.044;2023-08-06T04:51:36;2.37;;;1.13;;
69083;SDS011;56185;48.526;9.044;2023-08-06T04:54:02;2.53;;;1.00;;
69083;SDS011;56185;48.526;9.044;2023-08-06T04:56:27;2.03;;;0.82;;
69083;SDS011;56185;48.526;9.044;2023-08-06T04:58:52;2.20;;;1.03;;
69083;SDS011;56185;48.526;9.044;2023-08-06T05:01:17;2.17;;;1.00;;
69083;SDS011;56185;48.526;9.044;2023-08-06T05:03:43;1.50;;;0.98;;
69083;SDS011;56185;48.526;9.044;2023-08-06T05:06:08;2.93;;;1.10;;
69083;SDS011;56185;48.526;9.044;2023-08-06T05:08:33;3.03;;;1.23;;
69083;SDS011;56185;48.526;9.044;2023-08-06T05:10:59;4.00;;;0.90;;
69083;SDS011;56185;48.526;9.044;2023-08-06T05:13:24;1.80;;;0.90;;
69083;SDS011;56185;48.526;9.044;2023-08-06T05:15:49;1.85;;;1.05;;
69083;SDS011;56185;48.526;9.044;2023-08-06T05:18:14;2.83;;;1.07;;
69083;SDS011;56185;48.526;9.044;2023-08-06T05:20:40;2.10;;;0.90;;
69083;SDS011;56185;48.526;9.044;2023-08-06T05:23:06;2.72;;;0.90;;
69083;SDS011;56185;48.526;9.044;2023-08-06T05:25:31;2.60;;;0.90;;
69083;SDS011;56185;48.526;9.044;2023-08-06T05:27:59;2.55;;;0.80;;
69083;SDS011;56185;48.526;9.044;2023-08-06T05:30:24;3.17;;;0.90;;
69083;SDS011;56185;48.526;9.044;2023-08-06T05:32:49;2.45;;;0.80;;
69083;SDS011;56185;48.526;9.044;2023-08-06T05:35:15;6.55;;;0.70;;
69083;SDS011;56185;48.526;9.044;2023-08-06T05:37:40;2.50;;;0.75;;
69083;SDS011;56185;48.526;9.044;2023-08-06T05:40:05;2.80;;;0.80;;
69083;SDS011;56185;48.526;9.044;2023-08-06T05:42:31;3.03;;;1.02;;
69083;SDS011;56185;48.526;9.044;2023-08-06T05:44:56;2.65;;;0.80;;
69083;SDS011;56185;48.526;9.044;2023-08-06T05:47:21;3.55;;;0.90;;
69083;SDS011;56185;48.526;9.044;2023-08-06T05:49:47;2.42;;;0.80;;
69083;SDS011;56185;48.526;9.044;2023-08-06T05:52:12;2.10;;;0.93;;
69083;SDS011;56185;48.526;9.044;2023-08-06T05:54:37;2.33;;;0.90;;
69083;SDS011;56185;48.526;9.044;2023-08-06T05:57:03;2.22;;;0.90;;
69083;SDS011;56185;48.526;9.044;2023-08-06T05:59:28;2.22;;;0.80;;
69083;SDS011;56185;48.526;9.044;2023-08-06T06:01:54;2.50;;;0.77;;
69083;SDS011;56185;48.526;9.044;2023-08-06T06:04:19;3.73;;;0.90;;
69083;SDS011;56185;48.526;9.044;2023-08-06T06:06:44;2.70;;;0.70;;
69083;SDS011;56185;48.526;9.044;2023-08-06T06:09:09;1.87;;;0.80;;
69083;SDS011;56185;48.526;9.044;2023-08-06T06:11:35;4.22;;;1.00;;
69083;SDS011;56185;48.526;9.044;2023-08-06T06:14:00;1.73;;;0.80;;
69083;SDS011;56185;48.526;9.044;2023-08-06T06:16:25;3.10;;;0.90;;
69083;SDS011;56185;48.526;9.044;2023-08-06T06:18:50;2.70;;;1.00;;
69083;SDS011;56185;48.526;9.044;2023-08-06T06:21:16;3.37;;;0.90;;
69083;SDS011;56185;48.526;9.044;2023-08-06T06:23:41;1.77;;;0.73;;
69083;SDS011;56185;48.526;9.044;2023-08-06T06:26:06;2.80;;;0.80;;
69083;SDS011;56185;48.526;9.044;2023-08-06T06:28:31;1.10;;;0.70;;
69083;SDS011;56185;48.526;9.044;2023-08-06T06:31:00;1.70;;;0.80;;
69083;SDS011;56185;48.526;9.044;2023-08-06T06:33:26;1.40;;;0.70;;
69083;SDS011;56185;48.526;9.044;2023-08-06T06:35:51;1.33;;;0.73;;
69083;SDS011;56185;48.526;9.044;2023-08-06T06:38:16;2.20;;;0.70;;
69083;SDS011;56185;48.526;9.044;2023-08-06T06:40:44;1.27;;;0.70;;
69083;SDS011;56185;48.526;9.044;2023-08-06T06:43:21;1.55;;;0.80;;
69083;SDS011;56185;48.526;9.044;2023-08-06T06:45:46;1.55;;;0.60;;
69083;SDS011;56185;48.526;9.044;2023-08-06T06:48:11;0.88;;;0.60;;
69083;SDS011;56185;48.526;9.044;2023-08-06T06:50:37;1.55;;;0.80;;
69083;SDS011;56185;48.526;9.044;2023-08-06T06:53:02;4.70;;;0.77;;
69083;SDS011;56185;48.526;9.044;2023-08-06T06:55:27;1.13;;;0.70;;
69083;SDS011;56185;48.526;9.044;2023-08-06T06:57:52;1.27;;;0.63;;
69083;SDS011;56185;48.526;9.044;2023-08-06T07:00:18;1.58;;;0.60;;
69083;SDS011;56185;48.526;9.044;2023-08-06T07:02:43;0.90;;;0.60;;
69083;SDS011;56185;48.526;9.044;2023-08-06T07:05:08;1.25;;;0.57;;
69083;SDS011;56185;48.526;9.044;2023-08-06T07:07:33;1.60;;;0.50;;
69083;SDS011;56185;48.526;9.044;2023-08-06T07:09:59;1.40;;;0.70;;
69083;SDS011;56185;48.526;9.044;2023-08-06T07:12:24;1.17;;;0.67;;
69083;SDS011;56185;48.526;9.044;2023-08-06T07:14:49;0.80;;;0.60;;
69083;SDS011;56185;48.526;9.044;2023-08-06T07:17:14;2.50;;;0.60;;
69083;SDS011;56185;48.526;9.044;2023-08-06T07:19:40;1.45;;;0.55;;
69083;SDS011;56185;48.526;9.044;2023-08-06T07:22:05;2.40;;;0.70;;
69083;SDS011;56185;48.526;9.044;2023-08-06T07:24:30;1.13;;;0.50;;
69083;SDS011;56185;48.526;9.044;2023-08-06T07:26:55;1.57;;;0.83;;
69083;SDS011;56185;48.526;9.044;2023-08-06T07:29:21;1.13;;;0.40;;
69083;SDS011;56185;48.526;9.044;2023-08-06T07:31:46;0.77;;;0.50;;
69083;SDS011;56185;48.526;9.044;2023-08-06T07:34:11;0.77;;;0.57;;
69083;SDS011;56185;48.526;9.044;2023-08-06T07:36:37;1.17;;;0.60;;
69083;SDS011;56185;48.526;9.044;2023-08-06T07:39:02;1.58;;;0.60;;
69083;SDS011;56185;48.526;9.044;2023-08-06T07:41:28;1.20;;;0.63;;
69083;SDS011;56185;48.526;9.044;2023-08-06T07:43:53;0.50;;;0.43;;
69083;SDS011;56185;48.526;9.044;2023-08-06T07:46:18;0.63;;;0.50;;
69083;SDS011;56185;48.526;9.044;2023-08-06T07:48:43;0.70;;;0.47;;
69083;SDS011;56185;48.526;9.044;2023-08-06T07:51:09;1.30;;;0.50;;
69083;SDS011;56185;48.526;9.044;2023-08-06T07:53:34;0.63;;;0.50;;
69083;SDS011;56185;48.526;9.044;2023-08-06T07:55:59;0.50;;;0.40;;
69083;SDS011;56185;48.526;9.044;2023-08-06T07:58:24;0.47;;;0.40;;
69083;SDS011;56185;48.526;9.044;2023-08-06T08:00:50;0.60;;;0.50;;
69083;SDS011;56185;48.526;9.044;2023-08-06T08:03:15;1.35;;;0.50;;
69083;SDS011;56185;48.526;9.044;2023-08-06T08:05:42;0.65;;;0.50;;
69083;SDS011;56185;48.526;9.044;2023-08-06T08:08:08;1.58;;;0.50;;
69083;SDS011;56185;48.526;9.044;2023-08-06T08:10:34;1.00;;;0.43;;
69083;SDS011;56185;48.526;9.044;2023-08-06T08:13:00;0.40;;;0.40;;
69083;SDS011;56185;48.526;9.044;2023-08-06T08:15:27;1.13;;;0.52;;
69083;SDS011;56185;48.526;9.044;2023-08-06T08:17:53;1.67;;;0.40;;
69083;SDS011;56185;48.526;9.044;2023-08-06T08:20:20;0.63;;;0.45;;
69083;SDS011;56185;48.526;9.044;2023-08-06T08:22:45;0.60;;;0.50;;
69083;SDS011;56185;48.526;9.044;2023-08-06T08:25:10;0.77;;;0.53;;
69083;SDS011;56185;48.526;9.044;2023-08-06T08:27:36;0.47;;;0.40;;
69083;SDS011;56185;48.526;9.044;2023-08-06T08:30:01;0.60;;;0.50;;
69083;SDS011;56185;48.526;9.044;2023-08-06T08:32:26;0.57;;;0.43;;
69083;SDS011;56185;48.526;9.044;2023-08-06T08:34:52;0.40;;;0.40;;
69083;SDS011;56185;48.526;9.044;2023-08-06T08:37:17;0.55;;;0.40;;
69083;SDS011;56185;48.526;9.044;2023-08-06T08:39:42;0.40;;;0.40;;
69083;SDS011;56185;48.526;9.044;2023-08-06T08:42:08;1.02;;;0.50;;
69083;SDS011;56185;48.526;9.044;2023-08-06T08:44:36;0.50;;;0.40;;
69083;SDS011;56185;48.526;9.044;2023-08-06T08:47:01;0.50;;;0.40;;
69083;SDS011;56185;48.526;9.044;2023-08-06T08:49:27;0.50;;;0.40;;
69083;SDS011;56185;48.526;9.044;2023-08-06T08:51:53;0.65;;;0.40;;
69083;SDS011;56185;48.526;9.044;2023-08-06T08:54:20;0.82;;;0.50;;
69083;SDS011;56185;48.526;9.044;2023-08-06T08:56:48;0.50;;;0.40;;
69083;SDS011;56185;48.526;9.044;2023-08-06T08:59:14;0.65;;;0.50;;
69083;SDS011;56185;48.526;9.044;2023-08-06T09:01:39;0.87;;;0.40;;
69083;SDS011;56185;48.526;9.044;2023-08-06T09:04:06;0.65;;;0.50;;
69083;SDS011;56185;48.526;9.044;2023-08-06T09:06:32;0.40;;;0.40;;
69083;SDS011;56185;48.526;9.044;2023-08-06T09:09:06;0.80;;;0.50;;
69083;SDS011;56185;48.526;9.044;2023-08-06T09:11:35;0.88;;;0.40;;
69083;SDS011;56185;48.526;9.044;2023-08-06T09:14:04;0.63;;;0.45;;
69083;SDS011;56185;48.526;9.044;2023-08-06T09:16:36;0.60;;;0.45;;
69083;SDS011;56185;48.526;9.044;2023-08-06T09:19:08;0.98;;;0.43;;
69083;SDS011;56185;48.526;9.044;2023-08-06T09:21:38;0.73;;;0.50;;
69083;SDS011;56185;48.526;9.044;2023-08-06T09:24:13;0.45;;;0.40;;
69083;SDS011;56185;48.526;9.044;2023-08-06T09:26:43;0.65;;;0.47;;
69083;SDS011;56185;48.526;9.044;2023-08-06T09:29:09;0.68;;;0.50;;
69083;SDS011;56185;48.526;9.044;2023-08-06T09:31:42;0.40;;;0.40;;
69083;SDS011;56185;48.526;9.044;2023-08-06T09:34:14;0.35;;;0.35;;
69083;SDS011;56185;48.526;9.044;2023-08-06T09:36:43;0.75;;;0.47;;
69083;SDS011;56185;48.526;9.044;2023-08-06T09:39:15;0.63;;;0.40;;
69083;SDS011;56185;48.526;9.044;2023-08-06T09:41:41;0.70;;;0.40;;
69083;SDS011;56185;48.526;9.044;2023-08-06T09:44:17;0.70;;;0.40;;
69083;SDS011;56185;48.526;9.044;2023-08-06T09:46:50;1.27;;;0.60;;
69083;SDS011;56185;48.526;9.044;2023-08-06T09:49:15;0.65;;;0.50;;
69083;SDS011;56185;48.526;9.044;2023-08-06T09:51:42;0.70;;;0.50;;
69083;SDS011;56185;48.526;9.044;2023-08-06T09:54:08;0.70;;;0.45;;
69083;SDS011;56185;48.526;9.044;2023-08-06T09:56:34;1.13;;;0.40;;
69083;SDS011;56185;48.526;9.044;2023-08-06T09:59:01;1.60;;;0.57;;
69083;SDS011;56185;48.526;9.044;2023-08-06T10:01:26;1.90;;;0.40;;
69083;SDS011;56185;48.526;9.044;2023-08-06T10:03:52;1.85;;;0.60;;
69083;SDS011;56185;48.526;9.044;2023-08-06T10:06:18;0.50;;;0.40;;
69083;SDS011;56185;48.526;9.044;2023-08-06T10:08:45;0.73;;;0.50;;
69083;SDS011;56185;48.526;9.044;2023-08-06T10:11:10;0.80;;;0.40;;
69083;SDS011;56185;48.526;9.044;2023-08-06T10:13:36;0.60;;;0.50;;
69083;SDS011;56185;48.526;9.044;2023-08-06T10:16:02;0.45;;;0.40;;
69083;SDS011;56185;48.526;9.044;2023-08-06T10:18:29;1.30;;;0.40;;
69083;SDS011;56185;48.526;9.044;2023-08-06T10:20:55;1.55;;;0.50;;
69083;SDS011;56185;48.526;9.044;2023-08-06T10:23:20;1.02;;;0.40;;
69083;SDS011;56185;48.526;9.044;2023-08-06T10:25:58;0.65;;;0.40;;
69083;SDS011;56185;48.526;9.044;2023-08-06T10:28:24;0.60;;;0.45;;
69083;SDS011;56185;48.526;9.044;2023-08-06T10:30:59;0.70;;;0.47;;
69083;SDS011;56185;48.526;9.044;2023-08-06T10:33:24;0.95;;;0.50;;
69083;SDS011;56185;48.526;9.044;2023-08-06T10:36:06;0.50;;;0.50;;
69083;SDS011;56185;48.526;9.044;2023-08-06T10:38:33;0.60;;;0.40;;
69083;SDS011;56185;48.526;9.044;2023-08-06T10:43:34;0.63;;;0.53;;
69083;SDS011;56185;48.526;9.044;2023-08-06T10:46:03;2.15;;;0.50;;
69083;SDS011;56185;48.526;9.044;2023-08-06T10:48:35;0.70;;;0.40;;
69083;SDS011;56185;48.526;9.044;2023-08-06T10:51:02;0.68;;;0.47;;
69083;SDS011;56185;48.526;9.044;2023-08-06T10:53:28;0.60;;;0.50;;
69083;SDS011;56185;48.526;9.044;2023-08-06T10:55:54;2.13;;;0.50;;
69083;SDS011;56185;48.526;9.044;2023-08-06T10:58:19;0.60;;;0.40;;
69083;SDS011;56185;48.526;9.044;2023-08-06T11:00:45;0.77;;;0.52;;
69083;SDS011;56185;48.526;9.044;2023-08-06T11:03:10;25.38;;;8.68;;
69083;SDS011;56185;48.526;9.044;2023-08-06T11:05:36;19.05;;;6.45;;
69083;SDS011;56185;48.526;9.044;2023-08-06T11:08:01;22.42;;;7.07;;
69083;SDS011;56185;48.526;9.044;2023-08-06T11:10:27;10.57;;;3.95;;
69083;SDS011;56185;48.526;9.044;2023-08-06T11:12:52;5.80;;;2.17;;
69083;SDS011;56185;48.526;9.044;2023-08-06T11:15:19;5.78;;;1.70;;
69083;SDS011;56185;48.526;9.044;2023-08-06T11:17:45;3.38;;;1.30;;
69083;SDS011;56185;48.526;9.044;2023-08-06T11:20:10;2.35;;;0.80;;
69083;SDS011;56185;48.526;9.044;2023-08-06T11:22:36;3.45;;;1.30;;
69083;SDS011;56185;48.526;9.044;2023-08-06T11:25:02;3.40;;;1.33;;
69083;SDS011;56185;48.526;9.044;2023-08-06T11:27:28;1.95;;;0.90;;
69083;SDS011;56185;48.526;9.044;2023-08-06T11:29:53;2.95;;;0.85;;
69083;SDS011;56185;48.526;9.044;2023-08-06T11:32:18;7.07;;;2.47;;
69083;SDS011;56185;48.526;9.044;2023-08-06T11:34:44;4.22;;;1.42;;
69083;SDS011;56185;48.526;9.044;2023-08-06T11:37:09;3.55;;;1.25;;
69083;SDS011;56185;48.526;9.044;2023-08-06T11:39:35;1.63;;;0.90;;
69083;SDS011;56185;48.526;9.044;2023-08-06T11:42:07;1.13;;;0.60;;
69083;SDS011;56185;48.526;9.044;2023-08-06T11:44:34;1.38;;;0.52;;
69083;SDS011;56185;48.526;9.044;2023-08-06T11:47:01;1.10;;;0.63;;
69083;SDS011;56185;48.526;9.044;2023-08-06T11:49:47;1.02;;;0.60;;
69083;SDS011;56185;48.526;9.044;2023-08-06T11:54:59;2.53;;;0.70;;
69083;SDS011;56185;48.526;9.044;2023-08-06T11:57:31;0.80;;;0.60;;
69083;SDS011;56185;48.526;9.044;2023-08-06T11:59:56;0.93;;;0.52;;
69083;SDS011;56185;48.526;9.044;2023-08-06T12:02:21;0.60;;;0.50;;
69083;SDS011;56185;48.526;9.044;2023-08-06T12:07:28;0.80;;;0.60;;
69083;SDS011;56185;48.526;9.044;2023-08-06T12:09:54;2.20;;;0.80;;
69083;SDS011;56185;48.526;9.044;2023-08-06T12:12:19;1.50;;;0.73;;
69083;SDS011;56185;48.526;9.044;2023-08-06T12:14:44;1.10;;;0.77;;
69083;SDS011;56185;48.526;9.044;2023-08-06T12:17:10;2.03;;;0.90;;
69083;SDS011;56185;48.526;9.044;2023-08-06T12:19:36;5.65;;;1.08;;
69083;SDS011;56185;48.526;9.044;2023-08-06T12:22:01;2.47;;;0.80;;
69083;SDS011;56185;48.526;9.044;2023-08-06T12:24:26;1.87;;;1.00;;
69083;SDS011;56185;48.526;9.044;2023-08-06T12:26:51;1.30;;;0.90;;
69083;SDS011;56185;48.526;9.044;2023-08-06T12:29:17;3.10;;;1.23;;
69083;SDS011;56185;48.526;9.044;2023-08-06T12:31:42;1.58;;;1.00;;
69083;SDS011;56185;48.526;9.044;2023-08-06T12:34:07;2.20;;;1.10;;
69083;SDS011;56185;48.526;9.044;2023-08-06T12:36:32;1.87;;;1.00;;
69083;SDS011;56185;48.526;9.044;2023-08-06T12:38:58;1.27;;;0.97;;
69083;SDS011;56185;48.526;9.044;2023-08-06T12:41:23;4.00;;;1.30;;
69083;SDS011;56185;48.526;9.044;2023-08-06T12:43:48;3.20;;;1.30;;
69083;SDS011;56185;48.526;9.044;2023-08-06T12:46:13;3.30;;;1.00;;
69083;SDS011;56185;48.526;9.044;2023-08-06T12:48:39;1.70;;;1.00;;
69083;SDS011;56185;48.526;9.044;2023-08-06T12:51:04;1.35;;;0.90;;
69083;SDS011;56185;48.526;9.044;2023-08-06T12:53:29;1.73;;;1.00;;
69083;SDS011;56185;48.526;9.044;2023-08-06T12:55:54;2.03;;;0.90;;
69083;SDS011;56185;48.526;9.044;2023-08-06T12:58:19;1.40;;;0.87;;
69083;SDS011;56185;48.526;9.044;2023-08-06T13:00:45;1.43;;;1.00;;
69083;SDS011;56185;48.526;9.044;2023-08-06T13:03:10;1.57;;;0.83;;
69083;SDS011;56185;48.526;9.044;2023-08-06T13:05:35;1.60;;;0.90;;
69083;SDS011;56185;48.526;9.044;2023-08-06T13:08:00;1.30;;;0.90;;
69083;SDS011;56185;48.526;9.044;2023-08-06T13:10:26;1.45;;;0.88;;
69083;SDS011;56185;48.526;9.044;2023-08-06T13:12:51;1.10;;;0.80;;
69083;SDS011;56185;48.526;9.044;2023-08-06T13:15:16;1.93;;;1.00;;
69083;SDS011;56185;48.526;9.044;2023-08-06T13:17:41;2.35;;;0.80;;
69083;SDS011;56185;48.526;9.044;2023-08-06T13:20:07;1.10;;;0.80;;
69083;SDS011;56185;48.526;9.044;2023-08-06T13:22:32;1.15;;;0.70;;
69083;SDS011;56185;48.526;9.044;2023-08-06T13:24:57;1.00;;;0.70;;
69083;SDS011;56185;48.526;9.044;2023-08-06T13:27:23;1.43;;;0.80;;
69083;SDS011;56185;48.526;9.044;2023-08-06T13:29:48;0.80;;;0.60;;
69083;SDS011;56185;48.526;9.044;2023-08-06T13:32:13;1.03;;;0.70;;
69083;SDS011;56185;48.526;9.044;2023-08-06T13:34:38;1.17;;;0.60;;
69083;SDS011;56185;48.526;9.044;2023-08-06T13:37:04;1.10;;;0.70;;
69083;SDS011;56185;48.526;9.044;2023-08-06T13:39:29;1.03;;;0.60;;
69083;SDS011;56185;48.526;9.044;2023-08-06T13:41:57;1.33;;;0.70;;
69083;SDS011;56185;48.526;9.044;2023-08-06T13:44:22;1.45;;;0.70;;
69083;SDS011;56185;48.526;9.044;2023-08-06T13:46:48;3.00;;;0.70;;
69083;SDS011;56185;48.526;9.044;2023-08-06T13:49:13;1.17;;;0.70;;
69083;SDS011;56185;48.526;9.044;2023-08-06T13:51:38;3.10;;;0.90;;
69083;SDS011;56185;48.526;9.044;2023-08-06T13:54:03;0.70;;;0.60;;
69083;SDS011;56185;48.526;9.044;2023-08-06T13:56:29;2.37;;;0.80;;
69083;SDS011;56185;48.526;9.044;2023-08-06T13:58:55;0.87;;;0.60;;
69083;SDS011;56185;48.526;9.044;2023-08-06T14:01:20;1.00;;;0.70;;
69083;SDS011;56185;48.526;9.044;2023-08-06T14:03:45;0.80;;;0.60;;
69083;SDS011;56185;48.526;9.044;2023-08-06T14:06:11;1.47;;;0.60;;
69083;SDS011;56185;48.526;9.044;2023-08-06T14:08:36;1.10;;;0.53;;
69083;SDS011;56185;48.526;9.044;2023-08-06T14:11:01;1.40;;;0.70;;
69083;SDS011;56185;48.526;9.044;2023-08-06T14:13:27;1.27;;;0.60;;
69083;SDS011;56185;48.526;9.044;2023-08-06T14:15:58;1.30;;;0.75;;
69083;SDS011;56185;48.526;9.044;2023-08-06T14:18:23;0.70;;;0.50;;
69083;SDS011;56185;48.526;9.044;2023-08-06T14:20:49;1.77;;;0.55;;
69083;SDS011;56185;48.526;9.044;2023-08-06T14:23:20;0.90;;;0.60;;
69083;SDS011;56185;48.526;9.044;2023-08-06T14:25:48;0.88;;;0.60;;
69083;SDS011;56185;48.526;9.044;2023-08-06T14:28:13;5.75;;;0.95;;
69083;SDS011;56185;48.526;9.044;2023-08-06T14:30:39;1.23;;;0.60;;
69083;SDS011;56185;48.526;9.044;2023-08-06T14:33:04;1.80;;;0.80;;
69083;SDS011;56185;48.526;9.044;2023-08-06T14:35:29;2.10;;;0.73;;
69083;SDS011;56185;48.526;9.044;2023-08-06T14:37:54;1.00;;;0.60;;
69083;SDS011;56185;48.526;9.044;2023-08-06T14:40:20;1.75;;;0.70;;
69083;SDS011;56185;48.526;9.044;2023-08-06T14:42:45;0.60;;;0.50;;
69083;SDS011;56185;48.526;9.044;2023-08-06T14:45:10;1.10;;;0.67;;
69083;SDS011;56185;48.526;9.044;2023-08-06T14:47:35;0.90;;;0.60;;
69083;SDS011;56185;48.526;9.044;2023-08-06T14:50:01;1.03;;;0.60;;
69083;SDS011;56185;48.526;9.044;2023-08-06T14:52:26;0.50;;;0.50;;
69083;SDS011;56185;48.526;9.044;2023-08-06T14:54:51;1.87;;;0.60;;
69083;SDS011;56185;48.526;9.044;2023-08-06T14:57:19;1.00;;;0.60;;